createdAt,value
2022-11-01T00:00:07.137Z,44.28
2022-11-01T00:02:39.956Z,32.38
2022-11-01T00:05:07.485Z,26.02
2022-11-01T00:07:34.814Z,27.73
2022-11-01T00:10:02.154Z,33.08
2022-11-01T00:12:31.279Z,34.42
2022-11-01T00:14:58.711Z,34.33
2022-11-01T00:17:26.082Z,30.73
2022-11-01T00:19:53.416Z,32.22
2022-11-01T00:22:22.631Z,28.15
2022-11-01T00:24:50.387Z,34.45
2022-11-01T00:27:19.199Z,40.90
2022-11-01T00:29:46.532Z,35.85
2022-11-01T00:32:13.899Z,30.63
2022-11-01T00:34:41.246Z,29.33
2022-11-01T00:37:08.604Z,28.63
2022-11-01T00:39:35.988Z,34.33
2022-11-01T00:42:03.334Z,36.53
2022-11-01T00:44:30.643Z,40.53
2022-11-01T00:46:58.229Z,36.05
2022-11-01T00:49:25.564Z,35.03
2022-11-01T00:51:52.912Z,37.75
2022-11-01T00:54:20.215Z,32.70
2022-11-01T00:56:47.555Z,39.60
2022-11-01T00:59:14.885Z,41.90
2022-11-01T01:01:42.385Z,37.40
2022-11-01T01:04:09.774Z,30.48
2022-11-01T01:06:37.113Z,36.72
2022-11-01T01:09:04.717Z,44.15
2022-11-01T01:11:32.080Z,41.17
2022-11-01T01:13:59.408Z,44.30
2022-11-01T01:16:26.785Z,37.83
2022-11-01T01:18:54.145Z,39.53
2022-11-01T01:21:21.483Z,42.28
2022-11-01T01:23:49.033Z,37.10
2022-11-01T01:26:16.478Z,45.80
2022-11-01T01:28:45.050Z,43.83
2022-11-01T01:31:13.653Z,44.88
2022-11-01T01:33:41.122Z,45.28
2022-11-01T01:36:08.658Z,42.08
2022-11-01T01:38:35.977Z,43.53
2022-11-01T01:41:21.841Z,39.30
2022-11-01T01:43:49.152Z,39.20
2022-11-01T01:46:16.535Z,35.83
2022-11-01T01:48:48.472Z,38.42
2022-11-01T01:51:20.398Z,33.25
2022-11-01T01:53:56.252Z,37.78
2022-11-01T01:56:23.665Z,47.28
2022-11-01T01:58:54.843Z,39.58
2022-11-01T02:01:22.509Z,43.67
2022-11-01T02:03:51.053Z,40.05
2022-11-01T02:06:19.582Z,41.58
2022-11-01T02:09:00.456Z,36.38
2022-11-01T02:11:27.935Z,41.50
2022-11-01T02:13:55.567Z,41.10
2022-11-01T02:16:28.577Z,37.42
2022-11-01T02:19:14.658Z,38.15
2022-11-01T02:21:51.318Z,35.72
2022-11-01T02:24:18.617Z,32.67
2022-11-01T02:26:52.061Z,28.95
2022-11-01T02:29:28.479Z,33.97
2022-11-01T02:32:14.135Z,31.23
2022-11-01T02:34:45.066Z,33.42
2022-11-01T02:37:23.700Z,50.28
2022-11-01T02:39:55.837Z,39.95
2022-11-01T02:42:29.274Z,32.85
2022-11-01T02:45:03.944Z,36.55
2022-11-01T02:47:32.843Z,33.53
2022-11-01T02:50:05.140Z,35.05
2022-11-01T02:52:33.592Z,31.13
2022-11-01T02:55:01.891Z,39.63
2022-11-01T02:57:39.675Z,39.42
2022-11-01T03:00:19.290Z,40.47
2022-11-01T03:02:46.613Z,34.90
2022-11-01T03:05:18.254Z,35.38
2022-11-01T03:07:48.223Z,34.78
2022-11-01T03:10:15.676Z,33.22
2022-11-01T03:12:59.894Z,38.42
2022-11-01T03:15:30.981Z,33.47
2022-11-01T03:18:07.033Z,38.15
2022-11-01T03:20:50.013Z,33.70
2022-11-01T03:23:26.014Z,30.60
2022-11-01T03:25:57.194Z,36.05
2022-11-01T03:28:29.434Z,35.28
2022-11-01T03:31:06.380Z,38.72
2022-11-01T03:33:39.703Z,35.38
2022-11-01T03:36:13.582Z,36.38
2022-11-01T03:38:44.906Z,33.28
2022-11-01T03:41:16.923Z,28.67
2022-11-01T03:43:44.221Z,27.52
2022-11-01T03:46:11.597Z,39.28
2022-11-01T03:48:42.085Z,31.65
2022-11-01T03:51:09.493Z,30.02
2022-11-01T03:53:36.782Z,28.30
2022-11-01T03:56:04.284Z,32.85
2022-11-01T03:58:46.016Z,35.90
2022-11-01T04:01:14.706Z,31.15
2022-11-01T04:03:42.612Z,32.38
2022-11-01T04:06:10.150Z,35.33
2022-11-01T04:08:37.605Z,38.70
2022-11-01T04:11:05.076Z,32.53
2022-11-01T04:13:32.500Z,29.95
2022-11-01T04:16:19.058Z,35.10
2022-11-01T04:19:05.201Z,30.67
2022-11-01T04:21:32.660Z,27.23
2022-11-01T04:24:00.051Z,28.65
2022-11-01T04:26:27.384Z,24.55
2022-11-01T04:28:57.978Z,27.65
2022-11-01T04:31:28.699Z,27.98
2022-11-01T04:33:57.285Z,31.75
2022-11-01T04:36:24.725Z,27.60
2022-11-01T04:38:53.090Z,30.25
2022-11-01T04:41:22.507Z,28.17
2022-11-01T04:43:50.108Z,19.07
2022-11-01T04:46:17.461Z,25.23
2022-11-01T04:48:44.825Z,19.55
2022-11-01T04:51:12.292Z,21.40
2022-11-01T04:53:39.867Z,19.33
2022-11-01T04:56:09.042Z,21.67
2022-11-01T04:58:41.474Z,19.30
2022-11-01T05:01:13.574Z,17.65
2022-11-01T05:03:41.041Z,18.95
2022-11-01T05:06:08.433Z,15.30
2022-11-01T05:08:35.835Z,18.00
2022-11-01T05:11:03.268Z,19.40
2022-11-01T05:13:30.631Z,19.77
2022-11-01T05:18:45.261Z,17.85
2022-11-01T05:21:12.695Z,18.08
2022-11-01T05:23:40.085Z,11.80
2022-11-01T05:26:07.798Z,21.80
2022-11-01T05:28:35.190Z,11.88
2022-11-01T05:31:02.487Z,17.60
2022-11-01T05:33:29.837Z,15.88
2022-11-01T05:35:57.181Z,13.60
2022-11-01T05:38:24.584Z,20.65
2022-11-01T05:40:51.925Z,19.20
2022-11-01T05:43:19.281Z,20.00
2022-11-01T05:45:46.617Z,15.68
2022-11-01T05:48:13.967Z,13.93
2022-11-01T05:50:41.346Z,13.55
2022-11-01T05:53:10.456Z,12.90
2022-11-01T05:55:39.016Z,15.07
2022-11-01T05:58:06.719Z,14.02
2022-11-01T06:00:34.758Z,23.20
2022-11-01T06:03:02.975Z,23.48
2022-11-01T06:05:31.059Z,19.02
2022-11-01T06:07:58.735Z,13.63
2022-11-01T06:10:26.046Z,17.05
2022-11-01T06:12:53.528Z,16.90
2022-11-01T06:15:21.092Z,12.13
2022-11-01T06:17:48.458Z,18.50
2022-11-01T06:20:15.812Z,16.52
2022-11-01T06:22:43.251Z,16.30
2022-11-01T06:25:10.784Z,23.65
2022-11-01T06:27:38.096Z,16.20
2022-11-01T06:30:05.651Z,16.02
2022-11-01T06:32:33.029Z,19.35
2022-11-01T06:35:00.350Z,15.68
2022-11-01T06:37:27.719Z,12.68
2022-11-01T06:39:55.125Z,16.40
2022-11-01T06:42:22.523Z,20.15
2022-11-01T06:44:49.884Z,11.68
2022-11-01T06:47:17.225Z,10.35
2022-11-01T06:49:44.730Z,19.90
2022-11-01T06:52:12.073Z,11.20
2022-11-01T06:54:39.369Z,20.90
2022-11-01T06:57:06.936Z,19.13
2022-11-01T06:59:34.315Z,20.27
2022-11-01T07:02:01.830Z,12.68
2022-11-01T07:04:29.770Z,13.30
2022-11-01T07:06:57.182Z,18.88
2022-11-01T07:09:24.580Z,20.58
2022-11-01T07:11:51.897Z,11.48
2022-11-01T07:14:19.249Z,15.88
2022-11-01T07:16:46.540Z,23.65
2022-11-01T07:19:13.884Z,12.38
2022-11-01T07:21:41.198Z,12.05
2022-11-01T07:24:08.622Z,11.90
2022-11-01T07:26:35.945Z,21.80
2022-11-01T07:29:03.359Z,15.70
2022-11-01T07:31:33.240Z,15.85
2022-11-01T07:34:00.777Z,14.40
2022-11-01T07:36:28.058Z,13.93
2022-11-01T07:38:55.407Z,15.02
2022-11-01T07:41:22.868Z,15.35
2022-11-01T07:43:50.229Z,11.57
2022-11-01T07:46:17.560Z,16.83
2022-11-01T07:48:44.939Z,10.38
2022-11-01T07:51:12.292Z,12.43
2022-11-01T07:53:39.641Z,13.25
2022-11-01T07:56:07.969Z,16.60
2022-11-01T07:58:35.713Z,14.85
2022-11-01T08:01:03.061Z,14.90
2022-11-01T08:03:30.933Z,15.60
2022-11-01T08:05:58.327Z,12.05
2022-11-01T08:08:25.684Z,11.88
2022-11-01T08:10:52.995Z,13.82
2022-11-01T08:13:21.780Z,13.80
2022-11-01T08:15:50.525Z,11.07
2022-11-01T08:18:18.314Z,12.52
2022-11-01T08:20:45.815Z,12.43
2022-11-01T08:23:13.281Z,11.15
2022-11-01T08:25:40.775Z,17.60
2022-11-01T08:28:09.739Z,17.90
2022-11-01T08:30:38.783Z,17.95
2022-11-01T08:33:06.805Z,11.50
2022-11-01T08:35:34.838Z,12.50
2022-11-01T08:38:03.903Z,13.52
2022-11-01T08:40:32.321Z,12.50
2022-11-01T08:43:00.013Z,12.43
2022-11-01T08:45:27.639Z,9.23
2022-11-01T08:47:59.469Z,8.48
2022-11-01T08:50:26.997Z,14.15
2022-11-01T08:52:54.402Z,12.77
2022-11-01T08:55:22.764Z,6.70
2022-11-01T08:57:50.218Z,13.90
2022-11-01T09:00:17.920Z,11.40
2022-11-01T09:02:45.485Z,8.40
2022-11-01T09:05:12.909Z,10.63
2022-11-01T09:07:40.271Z,8.20
2022-11-01T09:10:07.831Z,7.47
2022-11-01T09:12:35.410Z,11.85
2022-11-01T09:15:02.818Z,9.70
2022-11-01T09:17:30.439Z,5.75
2022-11-01T09:19:57.915Z,11.90
2022-11-01T09:22:26.188Z,4.57
2022-11-01T09:24:55.530Z,4.72
2022-11-01T09:27:22.912Z,4.17
2022-11-01T09:29:52.051Z,6.97
2022-11-01T09:32:19.596Z,8.90
2022-11-01T09:34:49.081Z,6.13
2022-11-01T09:37:16.812Z,5.35
2022-11-01T09:39:44.156Z,10.38
2022-11-01T09:42:24.099Z,7.35
2022-11-01T09:44:54.664Z,9.10
2022-11-01T09:47:24.262Z,11.80
2022-11-01T09:49:54.218Z,5.32
2022-11-01T09:52:23.916Z,11.77
2022-11-01T09:54:51.545Z,12.45
2022-11-01T09:57:26.589Z,7.50
2022-11-01T09:59:53.876Z,6.78
2022-11-01T10:02:45.866Z,6.57
2022-11-01T10:05:39.250Z,10.15
2022-11-01T10:08:06.773Z,5.00
2022-11-01T10:10:46.422Z,6.47
2022-11-01T10:13:13.832Z,8.32
2022-11-01T10:15:59.667Z,6.55
2022-11-01T10:18:27.527Z,11.05
2022-11-01T10:20:59.654Z,6.68
2022-11-01T10:23:36.241Z,6.90
2022-11-01T10:26:04.717Z,6.22
2022-11-01T10:28:42.568Z,5.32
2022-11-01T10:31:16.088Z,9.52
2022-11-01T10:33:54.767Z,7.55
2022-11-01T10:36:34.993Z,6.05
2022-11-01T10:42:23.160Z,6.30
2022-11-01T10:44:55.303Z,10.32
2022-11-01T10:47:24.886Z,9.75
2022-11-01T10:50:06.685Z,7.53
2022-11-01T10:52:52.842Z,11.30
2022-11-01T10:55:22.920Z,6.43
2022-11-01T10:57:57.082Z,11.55
2022-11-01T11:00:24.439Z,5.30
2022-11-01T11:02:56.578Z,6.93
2022-11-01T11:05:25.890Z,3.58
2022-11-01T11:07:52.924Z,6.20
2022-11-01T11:10:29.335Z,4.13
2022-11-01T11:12:59.217Z,6.30
2022-11-01T11:15:39.885Z,5.97
2022-11-01T11:18:26.423Z,6.45
2022-11-01T11:21:08.859Z,4.90
2022-11-01T11:23:41.075Z,5.40
2022-11-01T11:26:21.324Z,6.03
2022-11-01T11:31:18.587Z,7.13
2022-11-01T11:34:01.154Z,4.10
2022-11-01T11:36:41.979Z,4.07
2022-11-01T11:39:26.815Z,4.78
2022-11-01T11:41:54.243Z,7.40
2022-11-01T11:44:53.846Z,7.57
2022-11-01T11:47:25.075Z,6.15
2022-11-01T11:49:54.023Z,14.82
2022-11-01T11:52:28.389Z,4.65
2022-11-01T11:54:56.251Z,11.35
2022-11-01T11:57:25.859Z,3.92
2022-11-01T11:59:59.471Z,9.82
2022-11-01T12:02:27.256Z,12.23
2022-11-01T12:04:59.931Z,7.63
2022-11-01T12:07:29.602Z,4.28
2022-11-01T12:09:58.355Z,8.95
2022-11-01T12:12:34.817Z,11.98
2022-11-01T12:15:04.308Z,4.03
2022-11-01T12:17:43.711Z,6.25
2022-11-01T12:20:24.672Z,6.80
2022-11-01T12:23:27.052Z,3.17
2022-11-01T12:25:54.830Z,6.38
2022-11-01T12:28:42.999Z,10.48
2022-11-01T12:31:17.878Z,3.97
2022-11-01T12:33:50.230Z,4.80
2022-11-01T12:36:21.275Z,3.58
2022-11-01T12:38:52.870Z,4.47
2022-11-01T12:41:37.509Z,4.18
2022-11-01T12:44:20.852Z,3.88
2022-11-01T12:47:15.660Z,2.97
2022-11-01T12:49:53.362Z,5.50
2022-11-01T12:52:37.584Z,3.42
2022-11-01T12:55:32.386Z,12.88
2022-11-01T12:58:00.033Z,3.65
2022-11-01T13:00:50.730Z,5.10
2022-11-01T13:03:22.268Z,5.20
2022-11-01T13:06:02.919Z,2.67
2022-11-01T13:08:38.242Z,5.43
2022-11-01T13:11:15.198Z,5.72
2022-11-01T13:13:53.831Z,3.85
2022-11-01T13:16:36.721Z,7.35
2022-11-01T13:19:10.161Z,4.60
2022-11-01T13:21:50.504Z,2.72
2022-11-01T13:27:02.017Z,11.27
2022-11-01T13:29:39.840Z,2.67
2022-11-01T13:32:13.272Z,3.78
2022-11-01T13:35:01.895Z,7.85
2022-11-01T13:37:32.815Z,1.27
2022-11-01T13:40:00.178Z,2.15
2022-11-01T13:42:41.693Z,2.88
2022-11-01T13:45:09.300Z,6.60
2022-11-01T13:47:42.993Z,5.15
2022-11-01T13:50:10.379Z,3.22
2022-11-01T13:52:44.991Z,1.40
2022-11-01T13:55:32.389Z,2.67
2022-11-01T13:58:00.385Z,6.80
2022-11-01T14:00:42.886Z,1.50
2022-11-01T14:03:17.584Z,3.58
2022-11-01T14:05:46.449Z,2.88
2022-11-01T14:08:13.760Z,2.00
2022-11-01T14:10:41.085Z,8.45
2022-11-01T14:13:08.421Z,5.20
2022-11-01T14:15:54.303Z,7.28
2022-11-01T14:18:21.713Z,6.78
2022-11-01T14:20:50.924Z,3.38
2022-11-01T14:23:32.883Z,1.58
2022-11-01T14:26:18.304Z,5.40
2022-11-01T14:28:47.011Z,6.22
2022-11-01T14:31:14.701Z,4.32
2022-11-01T14:33:42.129Z,7.75
2022-11-01T14:36:13.036Z,4.45
2022-11-01T14:38:50.682Z,3.38
2022-11-01T14:41:18.690Z,4.07
2022-11-01T14:43:51.212Z,6.18
2022-11-01T14:46:22.995Z,2.70
2022-11-01T14:48:53.466Z,3.17
2022-11-01T14:51:47.744Z,4.60
2022-11-01T14:54:28.852Z,2.95
2022-11-01T14:57:02.220Z,2.75
2022-11-01T14:59:37.248Z,1.15
2022-11-01T15:02:13.924Z,4.43
2022-11-01T15:04:45.075Z,2.50
2022-11-01T15:07:21.435Z,2.35
2022-11-01T15:09:57.839Z,2.28
2022-11-01T15:12:36.237Z,2.40
2022-11-01T15:15:04.383Z,3.10
2022-11-01T15:17:34.024Z,3.85
2022-11-01T15:20:07.395Z,6.65
2022-11-01T15:22:35.194Z,2.17
2022-11-01T15:25:05.560Z,6.63
2022-11-01T15:27:39.930Z,3.97
2022-11-01T15:30:10.743Z,4.47
2022-11-01T15:32:38.210Z,2.55
2022-11-01T15:35:21.349Z,6.05
2022-11-01T15:37:50.533Z,0.80
2022-11-01T15:40:26.701Z,3.05
2022-11-01T15:42:58.167Z,5.22
2022-11-01T15:45:28.623Z,1.95
2022-11-01T15:47:56.850Z,2.20
2022-11-01T15:50:24.306Z,5.15
2022-11-01T15:52:51.942Z,1.65
2022-11-01T15:55:29.398Z,3.67
2022-11-01T15:58:01.369Z,6.82
2022-11-01T16:00:37.985Z,1.60
2022-11-01T16:03:05.886Z,1.90
2022-11-01T16:05:44.868Z,4.55
2022-11-01T16:08:22.586Z,2.45
2022-11-01T16:10:50.106Z,9.25
2022-11-01T16:13:19.198Z,1.40
2022-11-01T16:16:03.122Z,2.47
2022-11-01T16:18:35.017Z,7.65
2022-11-01T16:21:20.952Z,3.97
2022-11-01T16:23:51.454Z,9.50
2022-11-01T16:26:18.933Z,3.78
2022-11-01T16:28:46.903Z,3.90
2022-11-01T16:31:28.951Z,5.22
2022-11-01T16:33:57.400Z,7.25
2022-11-01T16:36:35.828Z,1.80
2022-11-01T16:39:03.329Z,3.40
2022-11-01T16:41:37.911Z,1.52
2022-11-01T16:44:16.708Z,3.08
2022-11-01T16:46:44.561Z,6.55
2022-11-01T16:49:15.064Z,3.30
2022-11-01T16:54:10.460Z,4.78
2022-11-01T16:56:41.514Z,4.25
2022-11-01T16:59:14.801Z,2.42
2022-11-01T17:01:42.341Z,5.95
2022-11-01T17:04:11.104Z,3.42
2022-11-01T17:06:39.305Z,7.68
2022-11-01T17:09:14.500Z,6.20
2022-11-01T17:11:46.424Z,12.65
2022-11-01T17:14:18.386Z,9.30
2022-11-01T17:16:47.595Z,7.97
2022-11-01T17:19:20.752Z,10.88
2022-11-01T17:21:48.102Z,6.32
2022-11-01T17:24:20.394Z,10.80
2022-11-01T17:26:48.466Z,5.18
2022-11-01T17:29:15.859Z,5.68
2022-11-01T17:31:43.211Z,6.43
2022-11-01T17:34:10.553Z,5.10
2022-11-01T17:36:39.323Z,4.25
2022-11-01T17:39:06.940Z,4.65
2022-11-01T17:41:34.308Z,2.15
2022-11-01T17:44:01.763Z,1.77
2022-11-01T17:46:29.148Z,5.47
2022-11-01T17:48:56.505Z,3.85
2022-11-01T17:51:23.820Z,5.18
2022-11-01T17:53:55.145Z,4.35
2022-11-01T17:56:24.031Z,5.38
2022-11-01T17:58:53.840Z,2.45
2022-11-01T18:01:22.114Z,10.07
2022-11-01T18:03:50.063Z,1.58
2022-11-01T18:06:17.512Z,5.45
2022-11-01T18:08:46.591Z,5.10
2022-11-01T18:11:38.331Z,1.50
2022-11-01T18:14:17.316Z,9.00
2022-11-01T18:16:48.322Z,3.88
2022-11-01T18:19:28.489Z,6.43
2022-11-01T18:22:14.600Z,5.78
2022-11-01T18:24:54.631Z,2.83
2022-11-01T18:27:33.324Z,5.47
2022-11-01T18:30:01.175Z,3.17
2022-11-01T18:32:37.505Z,4.20
2022-11-01T18:35:38.896Z,5.03
2022-11-01T18:38:06.428Z,4.03
2022-11-01T18:40:41.750Z,4.57
2022-11-01T18:43:08.918Z,2.33
2022-11-01T18:45:52.839Z,8.88
2022-11-01T18:48:24.710Z,10.93
2022-11-01T18:50:59.898Z,9.02
2022-11-01T18:53:32.304Z,11.07
2022-11-01T18:56:22.941Z,2.92
2022-11-01T18:58:52.413Z,11.10
2022-11-01T19:01:21.022Z,3.97
2022-11-01T19:04:27.106Z,5.38
2022-11-01T19:07:03.774Z,4.90
2022-11-01T19:09:36.177Z,4.22
2022-11-01T19:12:11.409Z,3.20
2022-11-01T19:14:40.168Z,11.63
2022-11-01T19:17:18.684Z,2.88
2022-11-01T19:19:47.248Z,3.47
2022-11-01T19:22:31.208Z,4.60
2022-11-01T19:24:58.634Z,3.97
2022-11-01T19:27:26.482Z,4.13
2022-11-01T19:29:57.878Z,3.63
2022-11-01T19:32:25.822Z,2.42
2022-11-01T19:34:53.604Z,3.92
2022-11-01T19:37:33.149Z,3.08
2022-11-01T19:40:12.764Z,2.35
2022-11-01T19:42:40.116Z,3.53
2022-11-01T19:45:07.562Z,4.47
2022-11-01T19:47:34.990Z,3.60
2022-11-01T19:50:02.352Z,1.23
2022-11-01T19:52:35.655Z,9.00
2022-11-01T19:55:03.435Z,3.33
2022-11-01T19:57:32.086Z,3.88
2022-11-01T20:00:14.246Z,7.60
2022-11-01T20:02:43.689Z,2.35
2022-11-01T20:05:36.596Z,5.28
2022-11-01T20:08:24.803Z,7.75
2022-11-01T20:10:52.142Z,10.18
2022-11-01T20:13:19.615Z,3.85
2022-11-01T20:15:48.396Z,8.85
2022-11-01T20:18:15.916Z,4.85
2022-11-01T20:20:44.035Z,23.70
2022-11-01T20:23:27.464Z,3.75
2022-11-01T20:25:55.381Z,4.57
2022-11-01T20:28:22.961Z,3.15
2022-11-01T20:30:50.660Z,6.53
2022-11-01T20:33:18.584Z,4.90
2022-11-01T20:35:46.439Z,3.72
2022-11-01T20:38:13.991Z,3.65
2022-11-01T20:40:41.790Z,4.75
2022-11-01T20:43:11.758Z,9.63
2022-11-01T20:45:39.199Z,6.55
2022-11-01T20:48:09.364Z,6.47
2022-11-01T20:50:36.827Z,7.53
2022-11-01T20:53:05.468Z,4.07
2022-11-01T20:55:33.960Z,6.20
2022-11-01T20:58:01.807Z,3.30
2022-11-01T21:00:29.338Z,7.03
2022-11-01T21:02:57.799Z,7.38
2022-11-01T21:05:25.984Z,8.95
2022-11-01T21:08:10.453Z,8.35
2022-11-01T21:10:40.738Z,9.20
2022-11-01T21:15:59.645Z,4.43
2022-11-01T21:18:33.955Z,4.95
2022-11-01T21:21:17.038Z,4.55
2022-11-01T21:23:44.797Z,6.63
2022-11-01T21:26:22.059Z,5.70
2022-11-01T21:29:26.865Z,10.55
2022-11-01T21:31:54.397Z,4.78
2022-11-01T21:34:29.980Z,10.45
2022-11-01T21:36:58.605Z,9.88
2022-11-01T21:39:28.748Z,6.68
2022-11-01T21:41:59.268Z,6.72
2022-11-01T21:44:43.387Z,9.43
2022-11-01T21:47:22.236Z,14.65
2022-11-01T21:49:50.143Z,10.90
2022-11-01T21:52:20.940Z,7.95
2022-11-01T21:54:49.480Z,10.88
2022-11-01T21:57:17.582Z,6.10
2022-11-01T21:59:45.100Z,6.40
2022-11-01T22:02:13.611Z,10.05
2022-11-01T22:04:41.397Z,6.18
2022-11-01T22:07:09.822Z,10.55
2022-11-01T22:09:38.026Z,6.03
2022-11-01T22:12:06.711Z,10.18
2022-11-01T22:14:34.164Z,6.47
2022-11-01T22:17:01.518Z,5.57
2022-11-01T22:19:28.896Z,6.93
2022-11-01T22:21:56.555Z,9.57
2022-11-01T22:24:23.989Z,9.57
2022-11-01T22:26:51.547Z,6.57
2022-11-01T22:29:18.919Z,9.60
2022-11-01T22:31:46.243Z,11.50
2022-11-01T22:34:13.745Z,8.73
2022-11-01T22:36:44.615Z,11.77
2022-11-01T22:39:21.709Z,6.25
2022-11-01T22:41:49.234Z,7.40
2022-11-01T22:44:37.126Z,9.45
2022-11-01T22:47:05.974Z,5.82
2022-11-01T22:49:36.065Z,16.10
2022-11-01T22:52:29.352Z,4.78
2022-11-01T22:55:22.329Z,11.05
2022-11-01T22:58:01.191Z,9.48
2022-11-01T23:00:28.529Z,21.70
2022-11-01T23:03:10.882Z,9.57
2022-11-01T23:05:38.375Z,8.77
2022-11-01T23:08:15.966Z,11.63
2022-11-01T23:10:47.887Z,9.23
2022-11-01T23:13:36.732Z,10.25
2022-11-01T23:16:19.640Z,6.05
2022-11-01T23:18:46.996Z,8.50
2022-11-01T23:21:14.311Z,9.07
2022-11-01T23:23:43.969Z,9.25
2022-11-01T23:26:12.297Z,9.85
2022-11-01T23:28:41.970Z,6.28
2022-11-01T23:31:09.463Z,11.50
2022-11-01T23:33:43.002Z,9.52
2022-11-01T23:36:16.134Z,7.32
2022-11-01T23:38:56.647Z,9.07
2022-11-01T23:41:28.876Z,6.82
2022-11-01T23:43:58.500Z,5.72
2022-11-01T23:46:26.956Z,11.02
2022-11-01T23:49:09.638Z,7.65
2022-11-01T23:51:37.043Z,10.07
2022-11-01T23:54:06.589Z,19.95
2022-11-01T23:56:33.949Z,12.93
2022-11-01T23:59:04.022Z,8.90
